Time;durP1;ratioP1;P1;durP2;ratioP2;P2;SDS_P1;SDS_P2;PMS_P1;PMS_P2;Temp;Humidity;BMP_temperature;BMP_pressure;BME280_temperature;BME280_humidity;BME280_pressure;Samples;Min_cycle;Max_cycle;Signal;HPM_P1;HPM_P2
2022/05/30 00:01:22;;;;;;;3.60;0.70;;;11.60;99.90;;;;;;5102348;28;20036;-87
2022/05/30 00:03:50;;;;;;;2.78;0.82;;;11.50;99.90;;;;;;5106626;28;20032;-86
2022/05/30 00:06:19;;;;;;;3.33;0.70;;;11.50;99.90;;;;;;5105634;28;20124;-87
2022/05/30 00:08:45;;;;;;;3.88;0.77;;;11.50;99.90;;;;;;5111498;28;20084;-88
2022/05/30 00:11:15;;;;;;;3.50;0.82;;;11.40;99.90;;;;;;5108767;28;20307;-89
2022/05/30 00:13:41;;;;;;;3.45;0.80;;;11.40;99.90;;;;;;5116030;28;20016;-86
2022/05/30 00:16:10;;;;;;;3.38;0.77;;;11.30;99.90;;;;;;5113333;28;20044;-87
2022/05/30 00:18:36;;;;;;;3.70;0.82;;;11.30;99.90;;;;;;5108551;28;20046;-86
2022/05/30 00:21:03;;;;;;;1.52;0.40;;;11.10;99.90;;;;;;5090611;28;20085;-87
2022/05/30 00:23:29;;;;;;;3.60;0.68;;;11.10;99.90;;;;;;5106770;28;20048;-87
2022/05/30 00:25:56;;;;;;;2.58;1.10;;;11.10;99.90;;;;;;5104986;28;20048;-87
2022/05/30 00:28:22;;;;;;;2.30;0.70;;;11.20;99.90;;;;;;5103619;28;20024;-89
2022/05/30 00:30:49;;;;;;;3.28;0.90;;;11.20;99.90;;;;;;5106323;28;20031;-88
2022/05/30 00:33:16;;;;;;;5.13;1.05;;;11.20;99.90;;;;;;5086684;28;20038;-90
2022/05/30 00:35:43;;;;;;;3.08;0.70;;;11.10;99.90;;;;;;5099154;28;20496;-89
2022/05/30 00:38:09;;;;;;;2.88;0.50;;;11.10;99.90;;;;;;5082551;28;20043;-90
2022/05/30 00:40:36;;;;;;;3.47;0.90;;;11.10;99.90;;;;;;5099973;28;20048;-91
2022/05/30 00:43:28;;;;;;;3.92;0.90;;;11.00;99.90;;;;;;5102093;28;20028;-87
2022/05/30 00:45:55;;;;;;;2.92;0.70;;;11.00;99.90;;;;;;5100291;28;20493;-89
2022/05/30 00:48:43;;;;;;;2.05;0.55;;;11.00;99.90;;;;;;5100979;28;20016;-88
2022/05/30 00:51:14;;;;;;;1.17;0.60;;;10.90;99.90;;;;;;5104413;28;20043;-86
2022/05/30 00:53:43;;;;;;;2.58;0.80;;;10.90;99.90;;;;;;5105677;28;20020;-91
2022/05/30 00:56:11;;;;;;;1.80;0.60;;;10.90;99.90;;;;;;5106123;28;20027;-87
2022/05/30 00:58:45;;;;;;;6.45;1.10;;;10.90;99.90;;;;;;5103596;28;20028;-87
2022/05/30 01:01:11;;;;;;;2.72;0.80;;;10.90;99.90;;;;;;5102445;28;20020;-89
2022/05/30 01:06:31;;;;;;;3.40;1.00;;;11.00;99.90;;;;;;5103940;28;20059;-86
2022/05/30 01:08:57;;;;;;;3.05;0.63;;;11.10;99.90;;;;;;5104149;28;20386;-87
2022/05/30 01:11:23;;;;;;;4.85;0.93;;;11.10;99.90;;;;;;5106683;28;20031;-83
2022/05/30 01:13:49;;;;;;;3.22;0.90;;;11.10;99.90;;;;;;5107304;28;20028;-85
2022/05/30 01:16:15;;;;;;;2.88;0.77;;;11.10;99.90;;;;;;5107146;28;20024;-87
2022/05/30 01:18:50;;;;;;;2.85;0.73;;;11.10;99.90;;;;;;5105068;28;20111;-86
2022/05/30 01:21:31;;;;;;;4.55;0.90;;;11.20;99.90;;;;;;5104971;28;20020;-85
2022/05/30 01:24:30;;;;;;;2.38;0.60;;;11.10;99.90;;;;;;5105396;28;20099;-86
2022/05/30 01:27:02;;;;;;;4.03;0.80;;;11.00;99.90;;;;;;5084960;28;20067;-86
2022/05/30 01:29:34;;;;;;;3.35;0.95;;;10.90;99.90;;;;;;5104366;28;20020;-87
2022/05/30 01:32:00;;;;;;;1.95;0.65;;;10.90;99.90;;;;;;5100699;28;20382;-87
2022/05/30 01:34:27;;;;;;;2.78;0.90;;;10.80;99.90;;;;;;5099886;28;20028;-89
2022/05/30 01:36:54;;;;;;;3.00;0.98;;;10.70;99.90;;;;;;5098013;28;20020;-89
2022/05/30 01:39:20;;;;;;;2.55;0.60;;;10.60;99.90;;;;;;5099776;28;20031;-89
2022/05/30 01:41:46;;;;;;;2.03;0.70;;;10.50;99.90;;;;;;5085109;28;20028;-89
2022/05/30 01:44:14;;;;;;;1.90;0.73;;;10.60;99.90;;;;;;5104822;28;20069;-86
2022/05/30 01:46:40;;;;;;;2.13;0.63;;;10.60;99.90;;;;;;5105029;28;20119;-87
2022/05/30 01:49:06;;;;;;;3.13;1.00;;;10.50;99.90;;;;;;5098998;28;20024;-88
2022/05/30 01:51:32;;;;;;;3.10;0.80;;;10.30;99.90;;;;;;5098309;28;20020;-89
2022/05/30 01:53:59;;;;;;;2.53;0.73;;;10.30;99.90;;;;;;5100933;28;20034;-87
2022/05/30 01:56:24;;;;;;;4.18;0.90;;;10.20;99.90;;;;;;5102800;28;20020;-86
2022/05/30 01:58:50;;;;;;;2.95;0.77;;;10.10;99.90;;;;;;5103852;28;20042;-85
2022/05/30 02:01:24;;;;;;;4.07;1.00;;;10.00;99.90;;;;;;5101662;28;20054;-89
2022/05/30 02:03:52;;;;;;;4.28;0.95;;;10.10;99.90;;;;;;5102256;28;20032;-86
2022/05/30 02:06:19;;;;;;;3.00;0.80;;;10.10;99.90;;;;;;5104418;28;20429;-86
2022/05/30 02:08:47;;;;;;;2.70;0.70;;;10.10;99.90;;;;;;5103955;28;20031;-85
2022/05/30 02:11:14;;;;;;;1.85;0.55;;;10.10;99.90;;;;;;5104068;28;20027;-85
2022/05/30 02:13:40;;;;;;;2.83;0.50;;;10.30;99.90;;;;;;5105216;28;20024;-85
2022/05/30 02:18:52;;;;;;;2.45;0.70;;;10.40;99.90;;;;;;5105507;28;20149;-85
2022/05/30 02:21:18;;;;;;;1.73;0.60;;;10.40;99.90;;;;;;5104666;28;20020;-85
2022/05/30 02:23:45;;;;;;;2.92;0.57;;;10.40;99.90;;;;;;5104582;28;20586;-85
2022/05/30 02:26:11;;;;;;;2.97;0.50;;;10.50;99.90;;;;;;5103161;28;20085;-87
2022/05/30 02:28:36;;;;;;;2.70;0.60;;;10.50;99.90;;;;;;5104219;28;20103;-85
2022/05/30 02:31:03;;;;;;;2.35;0.65;;;10.50;99.90;;;;;;5103091;28;20035;-87
2022/05/30 02:39:01;;;;;;;2.10;0.70;;;10.20;99.90;;;;;;5104032;28;20065;-85
2022/05/30 02:41:26;;;;;;;2.08;0.50;;;10.00;99.90;;;;;;5102051;28;20024;-86
2022/05/30 02:43:52;;;;;;;4.00;0.80;;;9.90;99.90;;;;;;5084563;28;20062;-86
2022/05/30 02:46:18;;;;;;;2.88;0.90;;;9.80;99.90;;;;;;5102753;28;20028;-86
2022/05/30 02:48:44;;;;;;;3.05;0.93;;;9.80;99.90;;;;;;5100877;28;20066;-86
2022/05/30 02:51:10;;;;;;;3.40;1.02;;;9.60;99.90;;;;;;5099982;28;20020;-89
2022/05/30 02:53:36;;;;;;;3.15;0.68;;;9.60;99.90;;;;;;5099124;28;20084;-85
2022/05/30 02:56:03;;;;;;;2.33;0.75;;;9.50;99.90;;;;;;5100801;28;20020;-87
2022/05/30 02:58:29;;;;;;;1.33;0.73;;;9.40;99.90;;;;;;5099400;28;20028;-88
2022/05/30 03:00:54;;;;;;;1.85;0.82;;;9.50;99.90;;;;;;5099495;28;20583;-86
2022/05/30 03:03:20;;;;;;;1.55;0.60;;;9.50;99.90;;;;;;5102088;28;20024;-86
2022/05/30 03:05:46;;;;;;;2.05;0.95;;;9.50;99.90;;;;;;5102929;28;20101;-85
2022/05/30 03:08:11;;;;;;;2.33;0.57;;;9.50;99.90;;;;;;5104153;28;20074;-87
2022/05/30 03:10:37;;;;;;;2.38;0.60;;;9.50;99.90;;;;;;5102945;28;20020;-88
2022/05/30 03:13:05;;;;;;;5.05;1.65;;;9.40;99.90;;;;;;5104085;28;20031;-86
2022/05/30 03:15:31;;;;;;;1.98;0.70;;;9.40;99.90;;;;;;5106825;28;20533;-86
2022/05/30 03:17:57;;;;;;;1.92;0.82;;;9.40;99.90;;;;;;5111137;28;20032;-85
2022/05/30 03:20:23;;;;;;;2.90;0.80;;;9.30;99.90;;;;;;5110833;28;20130;-87
2022/05/30 03:22:49;;;;;;;1.88;0.70;;;9.30;99.90;;;;;;5109246;28;20477;-87
2022/05/30 03:25:16;;;;;;;3.85;1.00;;;9.40;99.90;;;;;;5116824;28;20004;-85
2022/05/30 03:27:42;;;;;;;3.10;0.90;;;9.50;99.90;;;;;;5121078;28;20036;-85
2022/05/30 03:30:10;;;;;;;2.30;0.80;;;9.60;99.90;;;;;;5118632;28;20012;-85
2022/05/30 03:32:36;;;;;;;1.20;0.70;;;9.70;99.90;;;;;;5120846;28;20099;-85
2022/05/30 03:35:04;;;;;;;2.78;0.95;;;9.80;99.90;;;;;;5120529;28;20012;-85
2022/05/30 03:37:30;;;;;;;3.28;0.75;;;9.80;99.90;;;;;;5119611;28;20040;-86
2022/05/30 03:39:55;;;;;;;1.92;0.80;;;9.90;99.90;;;;;;5119972;28;20034;-84
2022/05/30 03:42:21;;;;;;;3.47;0.80;;;10.00;99.90;;;;;;5117209;28;20023;-85
2022/05/30 03:44:46;;;;;;;1.70;0.75;;;9.90;99.90;;;;;;5113871;28;20024;-85
2022/05/30 03:47:12;;;;;;;2.55;0.90;;;9.80;99.90;;;;;;5111048;28;20024;-86
2022/05/30 03:49:38;;;;;;;1.58;0.80;;;9.70;99.90;;;;;;5110765;28;20020;-85
2022/05/30 03:52:04;;;;;;;2.88;0.80;;;9.70;99.90;;;;;;5109954;28;20092;-85
2022/05/30 03:54:31;;;;;;;3.03;0.90;;;9.70;99.90;;;;;;5107787;28;20026;-85
2022/05/30 03:56:56;;;;;;;2.50;0.93;;;9.70;99.90;;;;;;5106444;28;20047;-86
2022/05/30 03:59:23;;;;;;;4.15;1.10;;;9.70;99.90;;;;;;5106841;28;20028;-87
2022/05/30 04:01:49;;;;;;;2.05;1.17;;;9.80;99.90;;;;;;5103125;28;20070;-87
2022/05/30 04:04:14;;;;;;;1.98;0.70;;;9.70;99.90;;;;;;5099934;28;20023;-85
2022/05/30 04:06:41;;;;;;;1.45;0.68;;;9.70;99.90;;;;;;5097938;28;20080;-89
2022/05/30 04:09:07;;;;;;;1.80;0.70;;;9.70;99.90;;;;;;5099013;28;20036;-89
2022/05/30 04:11:33;;;;;;;3.72;0.82;;;9.80;99.90;;;;;;5101037;28;20035;-89
2022/05/30 04:13:59;;;;;;;3.05;0.70;;;9.90;99.90;;;;;;5099673;28;20020;-89
2022/05/30 04:16:25;;;;;;;2.35;0.60;;;9.90;99.90;;;;;;5101965;28;20043;-90
2022/05/30 04:18:50;;;;;;;2.15;1.02;;;9.90;99.90;;;;;;5099382;28;20063;-89
2022/05/30 04:21:17;;;;;;;2.85;0.85;;;9.90;99.90;;;;;;5100829;28;20032;-88
2022/05/30 04:23:43;;;;;;;2.00;0.70;;;10.00;99.90;;;;;;5103103;28;20034;-87
2022/05/30 04:26:12;;;;;;;1.98;0.70;;;10.10;99.90;;;;;;5104385;28;20470;-87
2022/05/30 04:28:37;;;;;;;2.53;0.80;;;10.30;99.90;;;;;;5103846;28;20036;-84
2022/05/30 04:31:13;;;;;;;2.03;0.88;;;10.30;99.90;;;;;;5104162;28;20044;-86
2022/05/30 04:33:40;;;;;;;2.10;0.80;;;10.40;99.90;;;;;;5100428;28;20092;-88
2022/05/30 04:36:10;;;;;;;3.92;1.33;;;10.30;99.90;;;;;;5102887;28;20032;-86
2022/05/30 04:38:36;;;;;;;3.13;0.77;;;10.40;99.90;;;;;;5106155;28;20066;-88
2022/05/30 04:41:02;;;;;;;2.00;0.65;;;10.40;99.90;;;;;;5101608;28;20009;-89
2022/05/30 04:43:28;;;;;;;2.75;0.88;;;10.50;99.90;;;;;;5098614;28;20032;-90
2022/05/30 04:46:10;;;;;;;2.97;0.80;;;10.50;99.90;;;;;;5100025;28;20072;-87
2022/05/30 04:48:36;;;;;;;3.08;0.80;;;10.50;99.90;;;;;;5099239;28;20103;-88
2022/05/30 04:51:02;;;;;;;2.53;0.70;;;10.50;99.90;;;;;;5098603;28;20040;-88
2022/05/30 04:53:28;;;;;;;1.50;0.60;;;10.50;99.90;;;;;;5097532;28;20024;-90
2022/05/30 04:55:55;;;;;;;1.63;0.60;;;10.50;99.90;;;;;;5100041;28;20047;-89
2022/05/30 04:58:21;;;;;;;2.25;0.60;;;10.50;99.90;;;;;;5096689;28;20035;-88
2022/05/30 05:00:47;;;;;;;2.25;0.60;;;10.50;99.90;;;;;;5095852;28;20040;-87
2022/05/30 05:03:14;;;;;;;1.73;0.60;;;10.50;99.90;;;;;;5098344;28;20035;-87
2022/05/30 05:05:40;;;;;;;2.15;0.65;;;10.60;99.90;;;;;;5103213;28;20070;-87
2022/05/30 05:08:19;;;;;;;4.00;0.80;;;10.70;99.90;;;;;;5102872;28;20024;-86
2022/05/30 05:10:58;;;;;;;2.80;0.65;;;10.70;99.90;;;;;;5103036;28;20028;-88
2022/05/30 05:13:24;;;;;;;1.20;0.40;;;10.70;99.90;;;;;;5104487;28;20047;-87
2022/05/30 05:15:54;;;;;;;2.88;0.70;;;10.80;99.90;;;;;;5105137;28;20028;-86
2022/05/30 05:18:20;;;;;;;2.33;0.65;;;10.80;99.90;;;;;;5104594;28;20089;-86
2022/05/30 05:20:46;;;;;;;1.90;0.70;;;10.80;99.90;;;;;;5102168;28;20016;-86
2022/05/30 05:23:12;;;;;;;2.58;0.80;;;10.70;99.90;;;;;;5102728;28;20032;-88
2022/05/30 05:25:40;;;;;;;1.00;0.50;;;10.60;99.90;;;;;;5101588;28;20028;-86
2022/05/30 05:28:06;;;;;;;1.65;0.60;;;10.60;99.90;;;;;;5085068;28;20049;-90
2022/05/30 05:30:32;;;;;;;1.73;0.60;;;10.60;99.90;;;;;;5100978;28;20500;-86
2022/05/30 05:33:00;;;;;;;2.13;0.57;;;10.60;99.90;;;;;;5102174;28;20074;-85
2022/05/30 05:35:27;;;;;;;2.05;0.60;;;10.70;99.90;;;;;;5101786;28;20055;-86
2022/05/30 05:37:52;;;;;;;1.63;0.50;;;10.80;99.90;;;;;;5099247;28;20048;-90
2022/05/30 05:40:18;;;;;;;0.80;0.50;;;10.80;99.90;;;;;;5097829;28;20016;-88
2022/05/30 05:42:44;;;;;;;1.85;0.70;;;10.90;99.90;;;;;;5097808;28;20093;-89
2022/05/30 05:45:10;;;;;;;1.73;0.63;;;11.00;99.90;;;;;;5085573;28;20024;-86
2022/05/30 05:47:36;;;;;;;1.50;0.60;;;11.10;99.90;;;;;;5103716;28;20043;-88
2022/05/30 05:50:02;;;;;;;2.22;0.70;;;11.10;99.90;;;;;;5102500;28;20477;-86
2022/05/30 05:52:32;;;;;;;1.75;0.60;;;11.10;99.90;;;;;;5103809;28;20102;-88
2022/05/30 05:55:00;;;;;;;2.15;0.50;;;11.20;99.90;;;;;;5102523;28;20026;-85
2022/05/30 05:57:26;;;;;;;1.45;0.50;;;11.20;99.90;;;;;;5102775;28;20046;-88
2022/05/30 05:59:52;;;;;;;2.33;0.60;;;11.20;99.90;;;;;;5101069;28;20036;-87
2022/05/30 06:02:18;;;;;;;1.08;0.45;;;11.30;99.90;;;;;;5101374;28;20030;-89
2022/05/30 06:04:44;;;;;;;1.45;0.57;;;11.40;99.90;;;;;;5098015;28;20020;-89
2022/05/30 06:07:10;;;;;;;0.90;0.52;;;11.50;99.90;;;;;;5096911;28;20043;-87
2022/05/30 06:09:38;;;;;;;2.05;0.60;;;11.60;99.90;;;;;;5098180;28;20070;-85
2022/05/30 06:12:04;;;;;;;0.98;0.47;;;11.70;99.90;;;;;;5100913;28;20050;-88
2022/05/30 06:14:30;;;;;;;0.85;0.40;;;11.80;99.90;;;;;;5102087;28;20020;-87
2022/05/30 06:16:57;;;;;;;2.88;0.70;;;11.90;99.90;;;;;;5101249;28;20550;-91
2022/05/30 06:19:22;;;;;;;1.00;0.47;;;12.00;99.90;;;;;;5102161;28;20035;-87
2022/05/30 06:21:48;;;;;;;2.50;0.40;;;12.10;99.90;;;;;;5100993;28;20017;-88
2022/05/30 06:24:16;;;;;;;1.92;0.40;;;12.20;99.90;;;;;;5104519;28;20024;-87
2022/05/30 06:26:44;;;;;;;1.50;0.50;;;12.30;99.90;;;;;;5105299;28;20028;-87
2022/05/30 06:29:14;;;;;;;1.52;0.52;;;12.40;99.90;;;;;;5089980;28;20024;-85
2022/05/30 06:31:40;;;;;;;0.98;0.30;;;12.40;99.90;;;;;;5105307;28;20370;-87
2022/05/30 06:34:07;;;;;;;1.58;0.40;;;12.40;99.90;;;;;;5101927;28;20105;-90
2022/05/30 06:36:34;;;;;;;2.60;0.30;;;12.40;99.90;;;;;;5099989;28;20117;-89
2022/05/30 06:39:00;;;;;;;2.33;0.80;;;12.50;99.90;;;;;;5099201;28;20124;-89
2022/05/30 06:41:29;;;;;;;1.60;0.25;;;12.30;99.90;;;;;;5098774;28;20044;-89
2022/05/30 06:44:06;;;;;;;2.15;0.43;;;12.40;99.90;;;;;;5100004;28;20030;-89
2022/05/30 06:46:34;;;;;;;2.47;0.60;;;12.40;99.90;;;;;;5098137;28;20096;-89
2022/05/30 06:49:01;;;;;;;2.38;0.40;;;12.40;99.90;;;;;;5099095;28;20048;-89
2022/05/30 06:51:29;;;;;;;1.98;0.43;;;12.50;99.90;;;;;;5100480;28;20028;-88
2022/05/30 06:53:55;;;;;;;1.58;0.45;;;12.60;99.90;;;;;;5099098;28;20035;-89
2022/05/30 06:56:24;;;;;;;3.33;0.47;;;12.60;99.90;;;;;;5098566;28;20024;-88
2022/05/30 06:58:50;;;;;;;2.00;0.50;;;12.60;99.90;;;;;;5098044;28;20040;-89
2022/05/30 07:01:17;;;;;;;2.30;0.50;;;12.60;99.90;;;;;;5096748;28;20358;-89
2022/05/30 07:03:46;;;;;;;2.72;0.40;;;12.70;99.90;;;;;;5097199;28;20024;-89
2022/05/30 07:06:18;;;;;;;2.13;0.50;;;12.90;99.90;;;;;;5098126;28;20040;-88
2022/05/30 07:08:46;;;;;;;1.40;0.50;;;13.00;99.90;;;;;;5107691;28;20028;-86
2022/05/30 07:11:13;;;;;;;3.13;0.57;;;13.10;99.90;;;;;;5105149;28;20062;-85
2022/05/30 07:13:38;;;;;;;1.73;0.45;;;13.10;99.90;;;;;;5102406;28;20050;-90
2022/05/30 07:16:04;;;;;;;2.60;0.55;;;13.30;99.90;;;;;;5098507;28;20024;-89
2022/05/30 07:18:31;;;;;;;1.63;0.43;;;13.40;99.90;;;;;;5101316;28;20046;-90
2022/05/30 07:20:59;;;;;;;3.20;0.50;;;13.40;99.90;;;;;;5100579;28;20066;-89
2022/05/30 07:23:25;;;;;;;3.40;0.63;;;13.50;99.90;;;;;;5101690;28;20035;-89
2022/05/30 07:25:55;;;;;;;1.45;0.40;;;13.60;99.90;;;;;;5097365;28;20137;-91
2022/05/30 07:28:21;;;;;;;2.67;0.68;;;13.50;99.90;;;;;;5098574;28;20017;-90
2022/05/30 07:30:47;;;;;;;3.28;0.85;;;13.50;99.90;;;;;;5098569;28;20031;-90
2022/05/30 07:33:13;;;;;;;1.48;0.57;;;13.40;99.90;;;;;;5097784;28;20020;-91
2022/05/30 07:35:38;;;;;;;1.75;0.52;;;13.30;99.90;;;;;;5098411;28;20099;-89
2022/05/30 07:38:04;;;;;;;3.22;0.70;;;13.30;99.90;;;;;;5097491;28;20080;-91
2022/05/30 07:40:30;;;;;;;1.80;0.30;;;13.20;99.90;;;;;;5098711;28;20112;-90
2022/05/30 07:42:56;;;;;;;2.28;0.40;;;13.20;99.90;;;;;;5097179;28;20028;-88
2022/05/30 07:45:22;;;;;;;1.85;0.50;;;13.20;99.90;;;;;;5099937;28;20100;-87
2022/05/30 07:47:47;;;;;;;1.48;0.30;;;13.20;99.90;;;;;;5100714;28;20060;-89
2022/05/30 07:50:13;;;;;;;1.33;0.30;;;13.20;99.90;;;;;;5104368;28;20045;-89
2022/05/30 07:52:39;;;;;;;0.50;0.30;;;13.20;99.90;;;;;;5104001;28;20031;-89
2022/05/30 07:55:05;;;;;;;1.25;0.32;;;13.20;99.90;;;;;;5102534;28;20079;-87
2022/05/30 08:00:15;;;;;;;0.93;0.35;;;13.10;99.90;;;;;;5102312;28;20062;-89
2022/05/30 08:02:41;;;;;;;2.00;0.40;;;13.20;99.90;;;;;;5098191;28;20020;-89
2022/05/30 08:05:09;;;;;;;1.75;0.47;;;13.20;99.90;;;;;;5095799;28;20509;-88
2022/05/30 08:07:35;;;;;;;1.15;0.30;;;13.20;99.90;;;;;;5096733;28;20116;-89
2022/05/30 08:10:04;;;;;;;2.72;0.45;;;13.20;99.90;;;;;;5096022;28;20521;-90
2022/05/30 08:12:31;;;;;;;2.05;0.30;;;13.30;99.90;;;;;;5095683;28;20062;-89
2022/05/30 08:14:57;;;;;;;1.70;0.43;;;13.40;99.90;;;;;;5096896;28;20030;-89
2022/05/30 08:17:23;;;;;;;2.22;0.40;;;13.50;99.90;;;;;;5098405;28;20039;-89
2022/05/30 08:19:49;;;;;;;1.50;0.40;;;13.70;99.90;;;;;;5098746;28;20020;-89
2022/05/30 08:22:15;;;;;;;2.63;0.38;;;13.80;99.90;;;;;;5105426;28;20045;-88
2022/05/30 08:24:44;;;;;;;1.15;0.30;;;13.90;99.90;;;;;;5104312;28;20077;-87
2022/05/30 08:27:10;;;;;;;1.48;0.30;;;14.00;99.90;;;;;;5106397;28;20020;-87
2022/05/30 08:29:36;;;;;;;2.25;0.20;;;14.10;99.90;;;;;;5100458;28;20023;-88
2022/05/30 08:32:04;;;;;;;1.02;0.20;;;14.10;99.90;;;;;;5096084;28;20032;-89
2022/05/30 08:34:31;;;;;;;1.05;0.32;;;14.20;99.90;;;;;;5096691;28;20474;-88
2022/05/30 08:37:00;;;;;;;2.10;0.47;;;14.20;99.90;;;;;;5099481;28;20165;-85
2022/05/30 08:42:10;;;;;;;1.92;0.40;;;14.00;99.90;;;;;;5097881;28;20071;-89
2022/05/30 08:44:36;;;;;;;2.63;0.40;;;14.00;99.90;;;;;;5098958;28;20028;-88
2022/05/30 08:47:13;;;;;;;2.17;0.80;;;14.10;99.90;;;;;;5098944;28;20028;-90
2022/05/30 08:49:52;;;;;;;2.25;0.50;;;14.20;99.90;;;;;;5096975;28;20020;-91
2022/05/30 08:52:20;;;;;;;1.50;0.50;;;14.30;99.90;;;;;;5099810;28;20024;-88
2022/05/30 08:55:09;;;;;;;1.98;0.30;;;14.40;99.90;;;;;;5102700;28;20378;-88
2022/05/30 08:58:05;;;;;;;1.60;0.50;;;14.50;99.90;;;;;;5101817;28;20121;-88
2022/05/30 09:00:35;;;;;;;2.17;0.38;;;14.70;99.90;;;;;;5103681;28;20020;-87
2022/05/30 09:03:36;;;;;;;2.25;0.40;;;14.70;99.90;;;;;;5094712;28;20035;-89
2022/05/30 09:06:16;;;;;;;1.20;0.30;;;14.90;99.90;;;;;;5072565;28;20047;-88
2022/05/30 09:09:05;;;;;;;0.77;0.30;;;15.00;99.90;;;;;;5081000;28;20032;-90
2022/05/30 09:11:40;;;;;;;0.77;0.25;;;15.20;99.90;;;;;;5091930;28;20036;-90
2022/05/30 09:14:14;;;;;;;1.30;0.30;;;15.30;99.90;;;;;;5094848;28;20078;-92
2022/05/30 09:16:48;;;;;;;2.08;0.40;;;15.40;99.90;;;;;;5092497;28;20032;-91
2022/05/30 09:19:17;;;;;;;2.70;0.55;;;15.20;99.90;;;;;;5093131;28;20114;-87
2022/05/30 09:21:43;;;;;;;1.63;0.43;;;15.10;99.90;;;;;;5092854;28;20024;-87
2022/05/30 09:24:08;;;;;;;1.73;0.50;;;15.00;99.90;;;;;;5093662;28;20035;-87
2022/05/30 09:26:37;;;;;;;2.15;0.43;;;15.10;99.90;;;;;;5094102;28;20102;-82
2022/05/30 09:29:08;;;;;;;2.15;0.50;;;15.30;99.90;;;;;;5091359;28;20031;-85
2022/05/30 09:31:56;;;;;;;1.63;0.30;;;15.60;99.90;;;;;;5094059;28;20434;-84
2022/05/30 09:34:47;;;;;;;3.00;0.50;;;16.60;99.90;;;;;;5092622;28;20058;-91
2022/05/30 09:37:34;;;;;;;2.72;0.50;;;18.30;99.90;;;;;;5094419;28;20028;-91
2022/05/30 09:40:00;;;;;;;2.28;0.50;;;19.00;99.90;;;;;;5093736;28;20035;-89
2022/05/30 09:42:30;;;;;;;2.13;0.52;;;19.60;99.90;;;;;;5094041;28;20032;-90
2022/05/30 09:45:14;;;;;;;1.33;0.40;;;20.00;99.90;;;;;;5093887;28;20099;-91
2022/05/30 09:48:11;;;;;;;0.95;0.32;;;20.30;99.90;;;;;;5094170;28;20024;-90
2022/05/30 09:50:52;;;;;;;1.80;0.40;;;20.50;99.90;;;;;;5093360;28;20027;-90
2022/05/30 09:53:36;;;;;;;1.40;0.35;;;20.10;99.80;;;;;;5093270;28;20020;-93
2022/05/30 09:56:02;;;;;;;0.80;0.25;;;19.60;99.90;;;;;;5093348;28;20016;-91
2022/05/30 09:58:48;;;;;;;2.70;0.70;;;19.00;99.90;;;;;;5093199;28;20127;-90
2022/05/30 10:01:25;;;;;;;3.03;0.55;;;18.40;99.30;;;;;;5094535;28;20024;-91
2022/05/30 10:03:56;;;;;;;1.30;0.40;;;17.70;99.60;;;;;;5093630;28;20020;-92
2022/05/30 10:06:25;;;;;;;2.35;0.80;;;17.30;99.90;;;;;;5092893;28;20044;-89
2022/05/30 10:09:18;;;;;;;1.88;0.43;;;16.90;99.80;;;;;;5093570;28;20080;-90
2022/05/30 10:11:53;;;;;;;2.05;0.50;;;16.50;99.70;;;;;;5093536;28;20028;-90
2022/05/30 10:14:25;;;;;;;1.35;0.60;;;16.20;99.90;;;;;;5093900;28;20020;-90
2022/05/30 10:16:56;;;;;;;2.50;0.50;;;16.00;99.90;;;;;;5093667;28;20039;-89
2022/05/30 10:19:28;;;;;;;1.58;0.43;;;15.80;99.90;;;;;;5093509;28;20115;-92
2022/05/30 10:28:33;;;;;;;2.45;0.43;;;15.20;99.90;;;;;;5095393;28;20051;-89
2022/05/30 10:31:04;;;;;;;1.30;0.40;;;15.00;99.90;;;;;;5096116;28;20039;-91
2022/05/30 10:33:56;;;;;;;2.25;0.50;;;15.00;99.90;;;;;;5095876;28;20024;-91
2022/05/30 10:36:44;;;;;;;1.20;0.50;;;15.00;99.90;;;;;;5092677;28;20036;-92
2022/05/30 10:39:21;;;;;;;1.55;0.65;;;15.10;99.90;;;;;;5094774;28;20042;-88
2022/05/30 10:41:56;;;;;;;1.50;0.55;;;15.20;99.90;;;;;;5093280;28;20339;-90
2022/05/30 10:44:26;;;;;;;3.25;0.98;;;15.30;99.90;;;;;;5091417;28;20061;-88
2022/05/30 10:47:00;;;;;;;2.33;0.50;;;15.40;99.90;;;;;;5092496;28;20032;-87
2022/05/30 10:49:32;;;;;;;2.28;0.60;;;15.50;99.90;;;;;;5091492;28;20055;-91
2022/05/30 10:52:14;;;;;;;1.98;0.50;;;15.50;99.90;;;;;;5091392;28;20469;-90
2022/05/30 10:54:51;;;;;;;2.28;0.40;;;15.60;99.90;;;;;;5090662;28;20020;-90
2022/05/30 10:57:45;;;;;;;1.90;0.60;;;15.70;99.90;;;;;;5090118;28;20028;-89
2022/05/30 11:00:16;;;;;;;3.47;0.70;;;15.70;99.90;;;;;;5091787;28;20028;-89
2022/05/30 11:03:12;;;;;;;1.95;0.55;;;15.70;99.90;;;;;;5091795;28;20024;-88
2022/05/30 11:06:01;;;;;;;1.73;0.60;;;15.80;99.90;;;;;;5090309;28;20059;-88
2022/05/30 11:09:00;;;;;;;2.97;0.70;;;15.80;99.90;;;;;;5090075;28;20032;-90
2022/05/30 11:12:09;;;;;;;3.40;0.70;;;15.70;99.90;;;;;;5090752;28;20082;-87
2022/05/30 11:14:45;;;;;;;4.45;0.82;;;15.70;99.90;;;;;;5085182;28;20044;-90
2022/05/30 11:17:30;;;;;;;2.38;0.70;;;15.80;99.90;;;;;;5091032;28;20047;-89
2022/05/30 11:20:05;;;;;;;1.83;0.60;;;16.00;99.90;;;;;;5089719;28;20559;-87
2022/05/30 11:22:44;;;;;;;1.83;0.55;;;16.10;99.90;;;;;;5090247;28;20024;-88
2022/05/30 11:25:22;;;;;;;2.20;0.90;;;16.20;99.90;;;;;;5093504;28;20051;-90
2022/05/30 11:28:06;;;;;;;1.77;0.60;;;16.20;99.90;;;;;;5094120;28;20359;-88
2022/05/30 11:30:50;;;;;;;3.03;0.60;;;16.20;99.90;;;;;;5092543;28;20032;-90
2022/05/30 11:33:44;;;;;;;1.65;0.50;;;16.20;99.90;;;;;;5093383;28;20024;-92
2022/05/30 11:36:38;;;;;;;0.95;0.43;;;16.40;99.90;;;;;;5100933;28;20024;-86
2022/05/30 11:39:11;;;;;;;;;;;16.50;99.70;;;;;;5106248;28;20043;-87
2022/05/30 11:41:48;;;;;;;1.77;0.60;;;16.50;99.80;;;;;;5112389;28;19946;-89
2022/05/30 11:44:23;;;;;;;1.38;0.40;;;16.60;99.70;;;;;;5112792;28;20036;-88
2022/05/30 11:47:08;;;;;;;2.25;0.40;;;16.80;99.60;;;;;;5102188;28;20058;-92
2022/05/30 11:49:49;;;;;;;1.25;0.50;;;17.00;99.40;;;;;;5096365;28;20028;-91
2022/05/30 11:52:34;;;;;;;3.72;0.70;;;17.10;99.20;;;;;;5097901;28;20051;-93
2022/05/30 11:55:15;;;;;;;1.73;0.50;;;17.30;99.00;;;;;;5094968;28;20038;-90
2022/05/30 11:57:47;;;;;;;2.38;0.50;;;17.30;98.90;;;;;;5099099;28;20024;-93
2022/05/30 12:00:28;;;;;;;3.60;0.60;;;17.40;98.80;;;;;;5100617;28;20016;-90
2022/05/30 12:02:56;;;;;;;1.48;0.60;;;17.70;98.80;;;;;;5099132;28;20016;-92
2022/05/30 12:05:52;;;;;;;1.80;0.60;;;17.80;98.60;;;;;;5100860;28;20050;-91
2022/05/30 12:08:46;;;;;;;1.90;0.90;;;18.00;98.50;;;;;;5094093;28;20051;-88
2022/05/30 12:11:48;;;;;;;2.30;0.80;;;18.20;98.40;;;;;;5100305;28;20028;-88
2022/05/30 12:14:20;;;;;;;1.15;0.38;;;18.40;98.50;;;;;;5099841;28;20035;-92
2022/05/30 12:16:59;;;;;;;1.60;0.50;;;18.60;98.30;;;;;;5099076;28;20032;-91
2022/05/30 12:25:38;;;;;;;2.15;0.80;;;19.10;97.60;;;;;;5114680;28;20038;-89
2022/05/30 12:28:26;;;;;;;;;;;19.10;97.30;;;;;;5113470;28;20024;-89
2022/05/30 12:31:31;;;;;;;1.67;0.60;;;19.10;97.40;;;;;;5095378;28;19951;-91
2022/05/30 12:33:58;;;;;;;2.25;0.52;;;19.50;97.20;;;;;;5090421;28;20427;-88
2022/05/30 12:36:24;;;;;;;0.77;0.43;;;19.60;97.00;;;;;;5103388;28;20107;-90
2022/05/30 12:39:30;;;;;;;1.48;0.50;;;19.80;96.90;;;;;;5102609;28;20552;-89
2022/05/30 12:42:03;;;;;;;1.75;0.60;;;19.90;96.80;;;;;;5105031;28;20035;-94
2022/05/30 12:44:44;;;;;;;1.33;0.50;;;19.90;96.60;;;;;;5103170;28;20025;-92
2022/05/30 12:47:18;;;;;;;1.15;0.60;;;19.70;96.60;;;;;;5103811;28;20051;-93
2022/05/30 12:49:49;;;;;;;1.48;0.47;;;19.60;96.50;;;;;;5097443;28;20082;-93
2022/05/30 12:52:21;;;;;;;1.63;0.60;;;19.50;96.50;;;;;;5081993;28;20037;-94
2022/05/30 12:55:09;;;;;;;3.20;0.60;;;19.40;96.50;;;;;;5092522;28;20025;-91
2022/05/30 12:57:44;;;;;;;3.85;1.13;;;19.10;96.30;;;;;;5076906;28;20124;-91
2022/05/30 13:00:36;;;;;;;2.15;0.60;;;18.90;96.50;;;;;;5078996;28;20028;-92
2022/05/30 13:03:31;;;;;;;2.38;0.55;;;18.90;96.60;;;;;;5060771;28;20029;-92
2022/05/30 13:06:14;;;;;;;1.70;0.55;;;18.90;96.60;;;;;;5106694;28;20067;-92
2022/05/30 13:08:45;;;;;;;1.95;0.68;;;19.00;96.60;;;;;;5112934;28;20028;-93
2022/05/30 13:11:33;;;;;;;1.33;0.50;;;19.30;96.60;;;;;;5116582;28;20046;-89
2022/05/30 13:14:36;;;;;;;1.25;0.50;;;19.40;96.30;;;;;;5116977;28;20038;-90
2022/05/30 13:17:22;;;;;;;2.33;0.40;;;19.40;96.10;;;;;;5096096;28;20032;-93
2022/05/30 13:20:17;;;;;;;3.45;0.68;;;19.20;95.90;;;;;;5111555;28;20335;-90
2022/05/30 13:22:53;;;;;;;1.83;0.60;;;19.20;95.80;;;;;;5081913;28;20041;-89
2022/05/30 13:25:22;;;;;;;1.50;0.50;;;19.40;95.80;;;;;;5114044;28;20032;-91
2022/05/30 13:27:51;;;;;;;1.58;0.50;;;19.40;95.50;;;;;;5097170;28;20081;-92
2022/05/30 13:30:25;;;;;;;2.83;0.60;;;19.50;95.40;;;;;;5111695;28;20033;-91
2022/05/30 13:32:51;;;;;;;1.70;0.40;;;19.60;95.00;;;;;;5101500;28;20012;-90
2022/05/30 13:35:19;;;;;;;0.63;0.30;;;19.60;94.70;;;;;;5116984;28;20024;-90
2022/05/30 13:37:49;;;;;;;2.70;0.40;;;19.80;94.70;;;;;;5114914;28;20038;-91
2022/05/30 13:40:24;;;;;;;1.45;0.40;;;19.90;94.40;;;;;;5097661;28;20058;-91